createdAt,value
2019-02-19T00:00:49.413Z,52.05
2019-02-19T00:01:51.629Z,52.05
2019-02-19T00:02:53.821Z,52.03
2019-02-19T00:03:56.240Z,52.05
2019-02-19T00:04:58.436Z,52.05
2019-02-19T00:06:03.056Z,52.04
2019-02-19T00:07:05.434Z,52.05
2019-02-19T00:08:07.658Z,52.03
2019-02-19T00:09:10.282Z,52.05
2019-02-19T00:10:12.498Z,52.02
2019-02-19T00:11:14.872Z,52.05
2019-02-19T00:12:20.009Z,52.06
2019-02-19T00:13:22.234Z,52.04
2019-02-19T00:14:24.466Z,52.04
2019-02-19T00:15:26.673Z,52.05
2019-02-19T00:16:28.908Z,52.05
2019-02-19T00:17:31.114Z,52.04
2019-02-19T00:18:33.332Z,52.07
2019-02-19T00:19:35.538Z,52.06
2019-02-19T00:20:38.138Z,52.05
2019-02-19T00:21:40.457Z,52.07
2019-02-19T00:22:42.654Z,52.07
2019-02-19T00:23:44.889Z,52.06
2019-02-19T00:24:47.522Z,52.07
2019-02-19T00:25:49.740Z,52.07
2019-02-19T00:26:51.940Z,52.05
2019-02-19T00:27:54.142Z,52.06
2019-02-19T00:28:56.354Z,52.07
2019-02-19T00:29:58.631Z,52.07
2019-02-19T00:31:00.808Z,52.07
2019-02-19T00:32:03.133Z,52.13
2019-02-19T00:33:05.352Z,52.11
2019-02-19T00:34:07.542Z,52.09
2019-02-19T00:35:09.914Z,52.09
2019-02-19T00:36:12.268Z,52.15
2019-02-19T00:37:14.577Z,52.13
2019-02-19T00:38:16.816Z,52.12
2019-02-19T00:39:18.992Z,52.15
2019-02-19T00:40:21.274Z,52.16
2019-02-19T00:41:25.557Z,52.20
2019-02-19T00:42:27.328Z,52.19
2019-02-19T00:43:29.538Z,52.14
2019-02-19T00:44:31.754Z,52.18
2019-02-19T00:45:36.352Z,52.18
2019-02-19T00:46:38.629Z,52.20
2019-02-19T00:47:40.933Z,52.16
2019-02-19T00:48:44.356Z,52.18
2019-02-19T00:49:46.537Z,52.18
2019-02-19T00:50:49.952Z,52.16
2019-02-19T00:51:52.116Z,52.18
2019-02-19T00:52:54.438Z,52.15
2019-02-19T00:53:56.641Z,52.18
2019-02-19T00:54:59.037Z,52.20
2019-02-19T00:56:01.311Z,52.18
2019-02-19T00:57:03.622Z,52.15
2019-02-19T00:58:05.753Z,52.20
2019-02-19T00:59:08.094Z,52.19
2019-02-19T01:00:10.648Z,52.14
2019-02-19T01:01:12.882Z,52.19
2019-02-19T01:02:15.252Z,52.21
2019-02-19T01:03:17.552Z,52.18
2019-02-19T01:04:19.748Z,52.21
2019-02-19T01:05:21.958Z,52.21
2019-02-19T01:06:24.182Z,52.22
2019-02-19T01:07:28.830Z,52.21
2019-02-19T01:08:31.026Z,52.21
2019-02-19T01:09:35.998Z,52.20
2019-02-19T01:10:38.195Z,52.22
2019-02-19T01:11:43.409Z,52.22
2019-02-19T01:12:45.614Z,52.17
2019-02-19T01:13:47.824Z,52.18
2019-02-19T01:14:50.141Z,52.20
2019-02-19T01:15:52.435Z,52.22
2019-02-19T01:16:54.721Z,52.22
2019-02-19T01:17:56.885Z,52.20
2019-02-19T01:18:59.090Z,52.22
2019-02-19T01:20:01.217Z,52.18
2019-02-19T01:21:03.456Z,52.22
2019-02-19T01:22:05.684Z,52.24
2019-02-19T01:23:07.887Z,52.24
2019-02-19T01:24:11.488Z,52.24
2019-02-19T01:25:13.589Z,52.23
2019-02-19T01:26:16.934Z,52.23
2019-02-19T01:27:19.273Z,52.25
2019-02-19T01:28:21.519Z,52.25
2019-02-19T01:29:23.732Z,52.21
2019-02-19T01:30:27.043Z,52.25
2019-02-19T01:31:29.262Z,52.23
2019-02-19T01:32:34.239Z,52.24
2019-02-19T01:33:36.585Z,52.23
2019-02-19T01:34:40.685Z,52.25
2019-02-19T01:35:42.751Z,52.22
2019-02-19T01:36:44.889Z,52.26
2019-02-19T01:37:47.130Z,52.22
2019-02-19T01:38:50.747Z,52.24
2019-02-19T01:39:52.943Z,52.22
2019-02-19T01:40:55.267Z,52.25
2019-02-19T01:41:57.451Z,52.21
2019-02-19T01:42:59.670Z,52.23
2019-02-19T01:44:01.877Z,52.21
2019-02-19T01:45:04.153Z,52.23
2019-02-19T01:46:09.015Z,52.22
2019-02-19T01:47:11.233Z,52.23
2019-02-19T01:48:13.453Z,52.25
2019-02-19T01:49:15.657Z,52.24
2019-02-19T01:50:17.862Z,52.21
2019-02-19T01:51:21.643Z,52.22
2019-02-19T01:52:23.910Z,52.23
2019-02-19T01:53:26.145Z,52.24
2019-02-19T01:54:28.359Z,52.24
2019-02-19T01:55:30.566Z,52.25
2019-02-19T01:56:33.053Z,52.22
2019-02-19T01:57:35.201Z,52.24
2019-02-19T01:58:37.427Z,52.25
2019-02-19T01:59:39.619Z,52.25
2019-02-19T02:00:41.999Z,52.25
2019-02-19T02:01:44.453Z,52.26
2019-02-19T02:02:46.622Z,52.25
2019-02-19T02:03:48.976Z,52.26
2019-02-19T02:04:51.201Z,52.26
2019-02-19T02:05:53.600Z,52.26
2019-02-19T02:06:55.797Z,52.27
2019-02-19T02:07:58.013Z,52.26
2019-02-19T02:09:01.346Z,52.27
2019-02-19T02:10:03.559Z,52.25
2019-02-19T02:11:05.760Z,52.28
2019-02-19T02:12:07.964Z,52.29
2019-02-19T02:13:10.178Z,52.28
2019-02-19T02:14:13.499Z,52.29
2019-02-19T02:15:15.688Z,52.28
2019-02-19T02:16:20.207Z,52.27
2019-02-19T02:17:22.417Z,52.27
2019-02-19T02:18:24.733Z,52.24
2019-02-19T02:19:27.186Z,52.25
2019-02-19T02:20:29.385Z,52.24
2019-02-19T02:21:31.593Z,52.23
2019-02-19T02:22:33.807Z,52.20
2019-02-19T02:23:38.070Z,52.24
2019-02-19T02:24:40.295Z,52.23
2019-02-19T02:25:42.685Z,52.22
2019-02-19T02:26:44.915Z,52.23
2019-02-19T02:27:47.290Z,52.22
2019-02-19T02:28:49.429Z,52.19
2019-02-19T02:29:51.670Z,52.23
2019-02-19T02:30:53.881Z,52.19
2019-02-19T02:31:56.247Z,52.20
2019-02-19T02:32:58.454Z,52.21
2019-02-19T02:34:00.672Z,52.21
2019-02-19T02:35:05.217Z,52.18
2019-02-19T02:36:09.244Z,52.18
2019-02-19T02:37:13.209Z,52.19
2019-02-19T02:38:15.577Z,52.21
2019-02-19T02:39:17.834Z,52.23
2019-02-19T02:40:20.055Z,52.23
2019-02-19T02:41:22.266Z,52.24
2019-02-19T02:42:24.446Z,52.28
2019-02-19T02:43:26.657Z,52.22
2019-02-19T02:44:28.960Z,52.23
2019-02-19T02:45:31.213Z,52.25
2019-02-19T02:46:33.433Z,52.21
2019-02-19T02:47:35.634Z,52.22
2019-02-19T02:48:37.863Z,52.21
2019-02-19T02:49:40.066Z,52.24
2019-02-19T02:50:42.318Z,52.24
2019-02-19T02:51:44.526Z,52.25
2019-02-19T02:52:46.732Z,52.26
2019-02-19T02:53:48.942Z,52.24
2019-02-19T02:54:51.156Z,52.26
2019-02-19T02:55:53.568Z,52.28
2019-02-19T02:56:55.775Z,52.27
2019-02-19T02:57:58.003Z,52.24
2019-02-19T02:59:00.285Z,52.27
2019-02-19T03:00:02.534Z,52.27
2019-02-19T03:01:04.776Z,52.28
2019-02-19T03:02:07.137Z,52.28
2019-02-19T03:03:09.345Z,52.30
2019-02-19T03:04:11.560Z,52.29
2019-02-19T03:05:16.664Z,52.30
2019-02-19T03:06:36.905Z,52.32
2019-02-19T03:07:45.687Z,52.31
2019-02-19T03:08:47.902Z,52.33
2019-02-19T03:09:50.115Z,52.31
2019-02-19T03:10:52.315Z,52.29
2019-02-19T03:11:54.554Z,52.27
2019-02-19T03:12:56.976Z,52.28
2019-02-19T03:13:59.194Z,52.29
2019-02-19T03:15:01.394Z,52.28
2019-02-19T03:16:03.601Z,52.28
2019-02-19T03:17:05.825Z,52.27
2019-02-19T03:18:08.036Z,52.30
2019-02-19T03:19:10.239Z,52.29
2019-02-19T03:20:12.461Z,52.27
2019-02-19T03:21:14.659Z,52.28
2019-02-19T03:22:16.891Z,52.27
2019-02-19T03:23:19.087Z,52.30
2019-02-19T03:24:21.296Z,52.29
2019-02-19T03:25:23.490Z,52.27
2019-02-19T03:26:25.720Z,52.27
2019-02-19T03:27:27.980Z,52.27
2019-02-19T03:28:30.359Z,52.29
2019-02-19T03:29:32.571Z,52.29
2019-02-19T03:30:34.796Z,52.33
2019-02-19T03:31:36.991Z,52.32
2019-02-19T03:32:42.264Z,52.32
2019-02-19T03:33:44.616Z,52.33
2019-02-19T03:34:46.816Z,52.31
2019-02-19T03:35:49.144Z,52.30
2019-02-19T03:36:51.347Z,52.33
2019-02-19T03:37:53.571Z,52.30
2019-02-19T03:38:55.785Z,52.32
2019-02-19T03:39:57.992Z,52.32
2019-02-19T03:41:00.286Z,52.32
2019-02-19T03:42:06.034Z,52.32
2019-02-19T03:43:09.601Z,52.30
2019-02-19T03:44:11.771Z,52.32
2019-02-19T03:45:14.121Z,52.32
2019-02-19T03:46:16.336Z,52.34
2019-02-19T03:47:18.633Z,52.34
2019-02-19T03:48:20.871Z,52.31
2019-02-19T03:49:23.064Z,52.32
2019-02-19T03:50:25.444Z,52.34
2019-02-19T03:51:27.653Z,52.33
2019-02-19T03:52:29.861Z,52.34
2019-02-19T03:53:32.084Z,52.32
2019-02-19T03:54:35.299Z,52.32
2019-02-19T03:55:37.496Z,52.33
2019-02-19T03:56:39.719Z,52.36
2019-02-19T03:57:41.913Z,52.33
2019-02-19T03:58:44.133Z,52.31
2019-02-19T03:59:46.343Z,52.32
2019-02-19T04:00:50.745Z,52.35
2019-02-19T04:01:52.933Z,52.34
2019-02-19T04:02:55.131Z,52.35
2019-02-19T04:03:57.374Z,52.35
2019-02-19T04:04:59.559Z,52.34
2019-02-19T04:06:01.769Z,52.35
2019-02-19T04:07:04.057Z,52.32
2019-02-19T04:08:06.369Z,52.33
2019-02-19T04:09:08.595Z,52.32
2019-02-19T04:10:10.808Z,52.33
2019-02-19T04:11:13.013Z,52.33
2019-02-19T04:12:15.318Z,52.31
2019-02-19T04:13:17.525Z,52.32
2019-02-19T04:14:19.778Z,52.34
2019-02-19T04:15:21.983Z,52.33
2019-02-19T04:16:24.105Z,52.35
2019-02-19T04:17:26.332Z,52.34
2019-02-19T04:18:28.535Z,52.33
2019-02-19T04:19:30.811Z,52.35
2019-02-19T04:20:33.013Z,52.36
2019-02-19T04:21:35.213Z,52.37
2019-02-19T04:22:37.414Z,52.36
2019-02-19T04:23:39.613Z,52.37
2019-02-19T04:24:41.833Z,52.36
2019-02-19T04:25:44.044Z,52.37
2019-02-19T04:26:47.494Z,52.37
2019-02-19T04:27:49.705Z,52.35
2019-02-19T04:28:51.925Z,52.34
2019-02-19T04:29:54.134Z,52.35
2019-02-19T04:30:56.335Z,52.33
2019-02-19T04:31:58.540Z,52.33
2019-02-19T04:33:00.762Z,52.35
2019-02-19T04:34:02.975Z,52.32
2019-02-19T04:35:05.212Z,52.34
2019-02-19T04:36:07.424Z,52.34
2019-02-19T04:37:09.619Z,52.34
2019-02-19T04:38:11.821Z,52.36
2019-02-19T04:39:15.129Z,52.36
2019-02-19T04:40:17.455Z,52.35
2019-02-19T04:41:19.651Z,52.36
2019-02-19T04:42:21.859Z,52.38
2019-02-19T04:43:25.443Z,52.36
2019-02-19T04:44:27.673Z,52.38
2019-02-19T04:45:29.878Z,52.35
2019-02-19T04:46:32.089Z,52.35
2019-02-19T04:47:34.385Z,52.36
2019-02-19T04:48:36.640Z,52.37
2019-02-19T04:49:38.819Z,52.35
2019-02-19T04:50:41.052Z,52.37
2019-02-19T04:51:43.302Z,52.38
2019-02-19T04:52:45.587Z,52.35
2019-02-19T04:53:47.788Z,52.34
2019-02-19T04:54:50.017Z,52.36
2019-02-19T04:55:52.231Z,52.36
2019-02-19T04:56:54.458Z,52.36
2019-02-19T04:57:56.657Z,52.37
2019-02-19T04:58:58.873Z,52.37
2019-02-19T05:00:01.102Z,52.39
2019-02-19T05:01:03.311Z,52.37
2019-02-19T05:02:05.509Z,52.39
2019-02-19T05:03:07.711Z,52.39
2019-02-19T05:04:09.925Z,52.39
2019-02-19T05:05:12.156Z,52.41
2019-02-19T05:06:14.359Z,52.39
2019-02-19T05:07:16.664Z,52.39
2019-02-19T05:08:21.823Z,52.39
2019-02-19T05:09:24.016Z,52.37
2019-02-19T05:10:28.747Z,52.38
2019-02-19T05:11:30.986Z,52.40
2019-02-19T05:12:33.152Z,52.43
2019-02-19T05:13:35.371Z,52.41
2019-02-19T05:14:37.606Z,52.38
2019-02-19T05:15:39.841Z,52.38
2019-02-19T05:16:42.041Z,52.37
2019-02-19T05:17:44.234Z,52.37
2019-02-19T05:18:48.935Z,52.37
2019-02-19T05:19:51.150Z,52.39
2019-02-19T05:20:53.390Z,52.37
2019-02-19T05:21:55.575Z,52.36
2019-02-19T05:22:57.788Z,52.37
2019-02-19T05:23:59.997Z,52.37
2019-02-19T05:25:02.206Z,52.38
2019-02-19T05:26:04.452Z,52.36
2019-02-19T05:27:07.186Z,52.38
2019-02-19T05:28:09.390Z,52.38
2019-02-19T05:29:11.627Z,52.37
2019-02-19T05:30:13.872Z,52.36
2019-02-19T05:31:16.148Z,52.36
2019-02-19T05:32:18.318Z,52.36
2019-02-19T05:33:20.792Z,52.33
2019-02-19T05:34:23.054Z,52.35
2019-02-19T05:35:25.266Z,52.35
2019-02-19T05:36:27.503Z,52.35
2019-02-19T05:37:29.700Z,52.35
2019-02-19T05:38:31.921Z,52.37
2019-02-19T05:39:34.132Z,52.36
2019-02-19T05:40:36.336Z,52.37
2019-02-19T05:41:38.571Z,52.37
2019-02-19T05:42:40.787Z,52.36
2019-02-19T05:43:44.990Z,52.38
2019-02-19T05:44:47.114Z,52.36
2019-02-19T05:45:49.323Z,52.38
2019-02-19T05:46:51.569Z,52.32
2019-02-19T05:47:53.748Z,52.34
2019-02-19T05:48:56.244Z,52.31
2019-02-19T05:49:58.483Z,52.33
2019-02-19T05:51:00.658Z,52.34
2019-02-19T05:52:05.265Z,52.33
2019-02-19T05:53:10.579Z,52.32
2019-02-19T05:54:12.794Z,52.33
2019-02-19T05:55:15.015Z,52.32
2019-02-19T05:56:20.236Z,52.31
2019-02-19T05:57:22.468Z,52.31
2019-02-19T05:58:24.662Z,52.29
2019-02-19T05:59:26.868Z,52.27
2019-02-19T06:00:29.085Z,52.26
2019-02-19T06:01:34.103Z,52.23
2019-02-19T06:02:36.312Z,52.20
2019-02-19T06:03:41.466Z,52.22
2019-02-19T06:04:43.590Z,52.21
2019-02-19T06:05:45.802Z,52.20
2019-02-19T06:06:48.028Z,52.18
2019-02-19T06:07:50.258Z,52.19
2019-02-19T06:08:52.563Z,52.22
2019-02-19T06:09:54.848Z,52.18
2019-02-19T06:10:57.065Z,52.18
2019-02-19T06:11:59.274Z,52.21
2019-02-19T06:13:01.500Z,52.21
2019-02-19T06:14:03.702Z,52.23
2019-02-19T06:15:05.906Z,52.21
2019-02-19T06:16:08.107Z,52.21
2019-02-19T06:17:10.318Z,52.21
2019-02-19T06:18:12.546Z,52.21
2019-02-19T06:19:14.762Z,52.23
2019-02-19T06:20:16.971Z,52.24
2019-02-19T06:21:19.163Z,52.24
2019-02-19T06:22:21.359Z,52.23
2019-02-19T06:23:23.610Z,52.22
2019-02-19T06:24:25.963Z,52.23
2019-02-19T06:25:28.310Z,52.23
2019-02-19T06:26:30.518Z,52.25
2019-02-19T06:27:32.737Z,52.25
2019-02-19T06:28:34.966Z,52.26
2019-02-19T06:29:37.204Z,52.27
2019-02-19T06:30:39.509Z,52.27
2019-02-19T06:31:42.914Z,52.27
2019-02-19T06:32:45.122Z,52.27
2019-02-19T06:33:47.350Z,52.28
2019-02-19T06:34:49.547Z,52.30
2019-02-19T06:35:51.750Z,52.28
2019-02-19T06:36:53.956Z,52.29
2019-02-19T06:37:56.166Z,52.30
2019-02-19T06:38:58.470Z,52.29
2019-02-19T06:40:00.677Z,52.26
2019-02-19T06:41:02.886Z,52.27
2019-02-19T06:42:05.107Z,52.29
2019-02-19T06:43:07.320Z,52.33
2019-02-19T06:44:09.555Z,52.31
2019-02-19T06:45:11.766Z,52.32
2019-02-19T06:46:13.962Z,52.32
2019-02-19T06:47:16.284Z,52.33
2019-02-19T06:48:18.477Z,52.31
2019-02-19T06:49:20.708Z,52.29
2019-02-19T06:50:22.919Z,52.30
2019-02-19T06:51:25.127Z,52.33
2019-02-19T06:52:27.312Z,52.32
2019-02-19T06:53:29.455Z,52.33
2019-02-19T06:54:31.694Z,52.34
2019-02-19T06:55:37.466Z,52.35
2019-02-19T06:56:41.108Z,52.37
2019-02-19T06:57:43.243Z,52.35
2019-02-19T06:58:45.458Z,52.34
2019-02-19T06:59:47.672Z,52.32
2019-02-19T07:00:49.873Z,52.34
2019-02-19T07:02:10.152Z,52.34
2019-02-19T07:03:35.531Z,52.37
2019-02-19T07:04:41.483Z,52.33
2019-02-19T07:05:43.744Z,52.36
2019-02-19T07:06:46.048Z,52.34
2019-02-19T07:07:49.449Z,52.35
2019-02-19T07:08:51.663Z,52.34
2019-02-19T07:09:53.877Z,52.33
2019-02-19T07:10:56.104Z,52.34
2019-02-19T07:11:58.930Z,52.32
2019-02-19T07:13:01.211Z,52.32
2019-02-19T07:14:03.418Z,52.33
2019-02-19T07:15:05.623Z,52.35
2019-02-19T07:16:07.876Z,52.35
2019-02-19T07:17:15.514Z,52.35
2019-02-19T07:18:14.091Z,52.34
2019-02-19T07:19:16.294Z,52.36
2019-02-19T07:20:18.494Z,52.36
2019-02-19T07:21:20.725Z,52.34
2019-02-19T07:22:22.938Z,52.32
2019-02-19T07:23:25.141Z,52.31
2019-02-19T07:24:27.334Z,52.32
2019-02-19T07:25:29.557Z,52.31
2019-02-19T07:26:31.772Z,52.33
2019-02-19T07:27:34.056Z,52.31
2019-02-19T07:28:36.247Z,52.32
2019-02-19T07:29:38.460Z,52.32
2019-02-19T07:30:40.656Z,52.35
2019-02-19T07:31:42.929Z,52.33
2019-02-19T07:32:45.137Z,52.32
2019-02-19T07:33:47.519Z,52.31
2019-02-19T07:34:49.787Z,52.30
2019-02-19T07:35:51.960Z,52.29
2019-02-19T07:36:54.207Z,52.31
2019-02-19T07:37:56.401Z,52.27
2019-02-19T07:38:58.658Z,52.31
2019-02-19T07:40:00.855Z,52.30
2019-02-19T07:41:03.259Z,52.30
2019-02-19T07:42:05.483Z,52.29
2019-02-19T07:43:09.267Z,52.32
2019-02-19T07:44:12.667Z,52.32
2019-02-19T07:45:14.889Z,52.37
2019-02-19T07:46:17.087Z,52.31
2019-02-19T07:47:24.642Z,52.32
2019-02-19T07:48:23.199Z,52.34
2019-02-19T07:49:25.399Z,52.35
2019-02-19T07:50:27.609Z,52.33
2019-02-19T07:51:29.795Z,52.33
2019-02-19T07:52:32.024Z,52.33
2019-02-19T07:53:34.225Z,52.34
2019-02-19T07:54:36.429Z,52.35
2019-02-19T07:55:38.662Z,52.34
2019-02-19T07:56:40.875Z,52.38
2019-02-19T07:57:43.083Z,52.36
2019-02-19T07:58:45.337Z,52.36
2019-02-19T07:59:47.574Z,52.34
2019-02-19T08:00:49.774Z,52.33
2019-02-19T08:01:51.970Z,52.35
2019-02-19T08:02:54.204Z,52.33
2019-02-19T08:03:56.431Z,52.36
2019-02-19T08:05:00.605Z,52.35
2019-02-19T08:06:02.511Z,52.33
2019-02-19T08:07:04.708Z,52.34
2019-02-19T08:08:06.943Z,52.36
2019-02-19T08:09:09.164Z,52.32
2019-02-19T08:10:11.362Z,52.34
2019-02-19T08:11:13.555Z,52.33
2019-02-19T08:12:15.766Z,52.32
2019-02-19T08:13:17.985Z,52.29
2019-02-19T08:14:20.201Z,52.28
2019-02-19T08:15:22.393Z,52.28
2019-02-19T08:16:24.595Z,52.28
2019-02-19T08:17:33.041Z,52.28
2019-02-19T08:18:30.831Z,52.29
2019-02-19T08:19:33.094Z,52.30
2019-02-19T08:20:35.306Z,52.29
2019-02-19T08:21:37.522Z,52.29
2019-02-19T08:22:39.736Z,52.31
2019-02-19T08:23:41.974Z,52.29
2019-02-19T08:24:44.191Z,52.28
2019-02-19T08:25:46.906Z,52.28
2019-02-19T08:26:49.114Z,52.26
2019-02-19T08:27:51.388Z,52.24
2019-02-19T08:28:53.796Z,52.25
2019-02-19T08:29:55.998Z,52.26
2019-02-19T08:30:58.211Z,52.25
2019-02-19T08:32:00.418Z,52.26
2019-02-19T08:33:02.674Z,52.24
2019-02-19T08:34:04.974Z,52.24
2019-02-19T08:35:07.192Z,52.25
2019-02-19T08:36:09.706Z,52.25
2019-02-19T08:37:11.902Z,52.25
2019-02-19T08:38:14.264Z,52.29
2019-02-19T08:39:16.560Z,52.28
2019-02-19T08:40:18.765Z,52.27
2019-02-19T08:41:20.958Z,52.28
2019-02-19T08:42:23.193Z,52.29
2019-02-19T08:43:26.645Z,52.29
2019-02-19T08:44:28.849Z,52.28
2019-02-19T08:45:31.066Z,52.26
2019-02-19T08:46:33.277Z,52.25
2019-02-19T08:47:42.309Z,52.28
2019-02-19T08:48:39.358Z,52.27
2019-02-19T08:49:41.538Z,52.27
2019-02-19T08:50:43.776Z,52.25
2019-02-19T08:51:45.990Z,52.26
2019-02-19T08:52:48.361Z,52.27
2019-02-19T08:53:50.729Z,52.25
2019-02-19T08:54:53.032Z,52.25
2019-02-19T08:55:55.426Z,52.26
2019-02-19T08:56:57.656Z,52.24
2019-02-19T08:58:00.064Z,52.21
2019-02-19T08:59:02.295Z,52.20
2019-02-19T09:00:04.602Z,52.13
2019-02-19T09:01:06.815Z,52.12
2019-02-19T09:02:09.035Z,52.13
2019-02-19T09:03:11.379Z,52.12
2019-02-19T09:04:13.726Z,52.10
2019-02-19T09:05:15.957Z,52.03
2019-02-19T09:06:18.167Z,52.02
2019-02-19T09:07:20.310Z,51.99
2019-02-19T09:08:22.670Z,51.96
2019-02-19T09:09:24.819Z,51.93
2019-02-19T09:10:27.047Z,51.90
2019-02-19T09:11:29.252Z,51.86
2019-02-19T09:12:31.457Z,51.89
2019-02-19T09:13:33.759Z,51.89
2019-02-19T09:14:36.885Z,51.90
2019-02-19T09:15:39.136Z,51.88
2019-02-19T09:16:41.590Z,51.87
2019-02-19T09:17:51.661Z,51.87
2019-02-19T09:18:47.721Z,51.81
2019-02-19T09:19:50.220Z,51.81
2019-02-19T09:20:52.435Z,51.83
2019-02-19T09:21:54.842Z,51.79
2019-02-19T09:22:57.171Z,51.80
2019-02-19T09:23:59.419Z,51.84
2019-02-19T09:25:01.634Z,51.82
2019-02-19T09:26:04.153Z,51.84
2019-02-19T09:27:06.513Z,51.82
2019-02-19T09:28:08.679Z,51.86
2019-02-19T09:29:11.016Z,51.89
2019-02-19T09:30:13.235Z,51.86
2019-02-19T09:31:15.656Z,51.85
2019-02-19T09:32:17.868Z,51.85
2019-02-19T09:33:20.071Z,51.85
2019-02-19T09:34:22.277Z,51.86
2019-02-19T09:35:24.533Z,51.90
2019-02-19T09:36:26.744Z,51.92
2019-02-19T09:37:28.968Z,51.93
2019-02-19T09:38:31.265Z,51.94
2019-02-19T09:39:33.395Z,51.95
2019-02-19T09:40:35.630Z,51.96
2019-02-19T09:41:37.847Z,51.99
2019-02-19T09:42:40.073Z,51.96
2019-02-19T09:43:47.034Z,51.99
2019-02-19T09:44:49.225Z,52.01
2019-02-19T09:45:51.455Z,52.02
2019-02-19T09:46:53.727Z,52.02
2019-02-19T09:48:01.320Z,52.04
2019-02-19T09:49:00.315Z,52.06
2019-02-19T09:50:02.475Z,52.06
2019-02-19T09:51:04.848Z,52.11
2019-02-19T09:52:07.075Z,52.09
2019-02-19T09:53:12.603Z,52.11
2019-02-19T09:54:14.993Z,52.15
2019-02-19T09:55:17.357Z,52.15
2019-02-19T09:56:19.893Z,52.15
2019-02-19T09:57:22.091Z,52.16
2019-02-19T09:58:25.906Z,52.15
2019-02-19T09:59:28.320Z,52.15
2019-02-19T10:00:30.659Z,52.15
2019-02-19T10:01:33.024Z,52.15
2019-02-19T10:02:35.258Z,52.17
2019-02-19T10:03:37.469Z,52.15
2019-02-19T10:04:39.673Z,52.21
2019-02-19T10:05:41.995Z,52.23
2019-02-19T10:06:44.151Z,52.25
2019-02-19T10:07:46.385Z,52.26
2019-02-19T10:08:48.746Z,52.26
2019-02-19T10:09:51.148Z,52.25
2019-02-19T10:10:53.355Z,52.28
2019-02-19T10:11:55.560Z,52.30
2019-02-19T10:12:57.855Z,52.31
2019-02-19T10:14:00.164Z,52.32
2019-02-19T10:15:02.845Z,52.31
2019-02-19T10:16:06.633Z,52.32
2019-02-19T10:17:08.883Z,52.33
2019-02-19T10:18:11.106Z,52.33
2019-02-19T10:19:13.336Z,52.33
2019-02-19T10:20:15.688Z,52.30
2019-02-19T10:21:18.346Z,52.27
2019-02-19T10:22:20.522Z,52.31
2019-02-19T10:23:22.793Z,52.29
2019-02-19T10:24:24.995Z,52.30
2019-02-19T10:25:28.410Z,52.31
2019-02-19T10:26:30.740Z,52.31
2019-02-19T10:27:32.972Z,52.28
2019-02-19T10:28:36.920Z,52.29
2019-02-19T10:29:39.154Z,52.30
2019-02-19T10:30:41.465Z,52.33
2019-02-19T10:31:43.784Z,52.34
2019-02-19T10:32:46.211Z,52.36
2019-02-19T10:33:48.519Z,52.38
2019-02-19T10:34:50.897Z,52.38
2019-02-19T10:35:53.037Z,52.42
2019-02-19T10:36:55.313Z,52.39
2019-02-19T10:37:57.651Z,52.42
2019-02-19T10:38:59.881Z,52.39
2019-02-19T10:40:02.285Z,52.43
2019-02-19T10:41:04.485Z,52.42
2019-02-19T10:42:06.690Z,52.43
2019-02-19T10:43:08.936Z,52.41
2019-02-19T10:44:11.283Z,52.44
2019-02-19T10:45:13.530Z,52.46
2019-02-19T10:46:15.739Z,52.47
2019-02-19T10:47:17.931Z,52.46
2019-02-19T10:48:20.171Z,52.49
2019-02-19T10:49:22.438Z,52.50
2019-02-19T10:50:24.825Z,52.49
2019-02-19T10:51:27.090Z,52.50
2019-02-19T10:52:29.315Z,52.51
2019-02-19T10:53:31.801Z,52.52
2019-02-19T10:54:34.126Z,52.49
2019-02-19T10:55:39.504Z,52.47
2019-02-19T10:56:41.812Z,52.46
2019-02-19T10:57:44.023Z,52.46
2019-02-19T10:58:46.395Z,52.44
2019-02-19T10:59:48.629Z,52.42
2019-02-19T11:00:50.848Z,52.45
2019-02-19T11:01:53.066Z,52.45
2019-02-19T11:02:55.368Z,52.44
2019-02-19T11:03:57.694Z,52.45
2019-02-19T11:05:00.249Z,52.45
2019-02-19T11:06:02.596Z,52.48
2019-02-19T11:07:05.099Z,52.48
2019-02-19T11:08:07.319Z,52.49
2019-02-19T11:09:09.624Z,52.51
2019-02-19T11:10:13.433Z,52.53
2019-02-19T11:11:16.004Z,52.53
2019-02-19T11:12:18.388Z,52.51
2019-02-19T11:13:20.518Z,52.52
2019-02-19T11:14:22.757Z,52.52
2019-02-19T11:15:25.069Z,52.51
2019-02-19T11:16:27.322Z,52.50
2019-02-19T11:17:29.496Z,52.50
2019-02-19T11:18:31.863Z,52.46
2019-02-19T11:19:34.030Z,52.43
2019-02-19T11:20:36.233Z,52.45
2019-02-19T11:21:38.381Z,52.46
2019-02-19T11:22:40.527Z,52.48
2019-02-19T11:23:42.892Z,52.49
2019-02-19T11:24:45.845Z,52.51
2019-02-19T11:25:48.290Z,52.51
2019-02-19T11:26:50.640Z,52.51
2019-02-19T11:27:52.895Z,52.52
2019-02-19T11:28:57.151Z,52.52
2019-02-19T11:29:59.616Z,52.54
2019-02-19T11:31:01.834Z,52.56
2019-02-19T11:32:04.193Z,52.57
2019-02-19T11:33:06.663Z,52.59
2019-02-19T11:34:09.000Z,52.61
2019-02-19T11:35:11.266Z,52.61
2019-02-19T11:36:13.446Z,52.61
2019-02-19T11:37:15.802Z,52.58
2019-02-19T11:38:18.014Z,52.55
2019-02-19T11:39:20.226Z,52.57
2019-02-19T11:40:22.448Z,52.54
2019-02-19T11:41:24.759Z,52.55
2019-02-19T11:42:26.967Z,52.54
2019-02-19T11:43:29.177Z,52.56
2019-02-19T11:44:31.385Z,52.54
2019-02-19T11:45:33.850Z,52.57
2019-02-19T11:46:36.062Z,52.59
2019-02-19T11:47:38.267Z,52.58
2019-02-19T11:48:40.473Z,52.59
2019-02-19T11:49:42.907Z,52.63
2019-02-19T11:50:45.114Z,52.60
2019-02-19T11:51:47.386Z,52.60
2019-02-19T11:52:49.702Z,52.59
2019-02-19T11:53:51.919Z,52.59
2019-02-19T11:54:56.497Z,52.58
2019-02-19T11:55:58.859Z,52.56
2019-02-19T11:57:01.020Z,52.59
2019-02-19T11:58:03.339Z,52.61
2019-02-19T11:59:08.744Z,52.63
2019-02-19T12:00:12.535Z,52.67
2019-02-19T12:01:14.770Z,52.66
2019-02-19T12:02:17.158Z,52.68
2019-02-19T12:03:19.308Z,52.65
2019-02-19T12:04:21.539Z,52.65
2019-02-19T12:05:23.865Z,52.66
2019-02-19T12:06:26.058Z,52.65
2019-02-19T12:07:28.430Z,52.64
2019-02-19T12:08:38.633Z,52.62
2019-02-19T12:09:34.584Z,52.63
2019-02-19T12:10:36.799Z,52.63
2019-02-19T12:11:39.080Z,52.63
2019-02-19T12:12:41.299Z,52.64
2019-02-19T12:13:43.568Z,52.62
2019-02-19T12:14:45.783Z,52.57
2019-02-19T12:15:48.020Z,52.58
2019-02-19T12:16:50.351Z,52.55
2019-02-19T12:17:52.704Z,52.58
2019-02-19T12:18:54.925Z,52.59
2019-02-19T12:19:57.314Z,52.53
2019-02-19T12:20:59.692Z,52.53
2019-02-19T12:22:02.078Z,52.52
2019-02-19T12:23:04.314Z,52.51
2019-02-19T12:24:06.708Z,52.46
2019-02-19T12:25:09.153Z,52.47
2019-02-19T12:26:11.556Z,52.47
2019-02-19T12:27:13.759Z,52.46
2019-02-19T12:28:15.985Z,52.46
2019-02-19T12:29:18.381Z,52.49
2019-02-19T12:30:20.634Z,52.48
2019-02-19T12:31:23.028Z,52.46
2019-02-19T12:32:25.587Z,52.49
2019-02-19T12:33:27.711Z,52.49
2019-02-19T12:34:29.923Z,52.49
2019-02-19T12:35:32.247Z,52.48
2019-02-19T12:36:34.476Z,52.49
2019-02-19T12:37:36.891Z,52.53
2019-02-19T12:38:39.116Z,52.54
2019-02-19T12:39:41.345Z,52.55
2019-02-19T12:40:43.535Z,52.58
2019-02-19T12:41:45.735Z,52.58
2019-02-19T12:42:48.283Z,52.59
2019-02-19T12:43:51.066Z,52.60
2019-02-19T12:44:53.352Z,52.63
2019-02-19T12:45:55.588Z,52.63
2019-02-19T12:46:58.020Z,52.63
2019-02-19T12:48:00.284Z,52.63
2019-02-19T12:49:02.767Z,52.62
2019-02-19T12:50:04.911Z,52.64
2019-02-19T12:51:07.271Z,52.62
2019-02-19T12:52:09.532Z,52.63
2019-02-19T12:53:11.839Z,52.63
2019-02-19T12:54:14.065Z,52.67
2019-02-19T12:55:16.279Z,52.69
2019-02-19T12:56:18.486Z,52.67
2019-02-19T12:57:20.799Z,52.69
2019-02-19T12:58:23.022Z,52.67
2019-02-19T12:59:25.221Z,52.69
2019-02-19T13:00:27.413Z,52.72
2019-02-19T13:01:29.651Z,52.72
2019-02-19T13:02:32.072Z,52.73
2019-02-19T13:03:34.295Z,52.69
2019-02-19T13:04:36.514Z,52.70
2019-02-19T13:05:38.717Z,52.72
2019-02-19T13:06:40.945Z,52.77
2019-02-19T13:07:43.144Z,52.78
2019-02-19T13:08:45.367Z,52.81
2019-02-19T13:09:47.573Z,52.81
2019-02-19T13:10:49.787Z,52.81
2019-02-19T13:11:52.217Z,52.83
2019-02-19T13:12:54.483Z,52.82
2019-02-19T13:13:56.681Z,52.84
2019-02-19T13:14:58.881Z,52.83
2019-02-19T13:16:01.023Z,52.81
2019-02-19T13:17:03.351Z,52.80
2019-02-19T13:18:05.561Z,52.78
2019-02-19T13:19:08.022Z,52.78
2019-02-19T13:20:10.345Z,52.79
2019-02-19T13:21:12.544Z,52.75
2019-02-19T13:22:14.903Z,52.72
2019-02-19T13:23:17.373Z,52.68
2019-02-19T13:24:19.693Z,52.67
2019-02-19T13:25:22.035Z,52.62